createdAt,value
2019-05-17T00:03:09.273Z,97419.67
2019-05-17T00:07:16.703Z,97412.56
2019-05-17T00:11:22.523Z,97409.02
2019-05-17T00:15:28.257Z,97405.80
2019-05-17T00:19:33.962Z,97398.55
2019-05-17T00:23:40.632Z,97392.80
2019-05-17T00:27:47.431Z,97385.67
2019-05-17T00:31:53.704Z,97387.19
2019-05-17T00:35:59.397Z,97379.31
2019-05-17T00:40:07.694Z,97377.50
2019-05-17T00:44:13.371Z,97372.47
2019-05-17T00:48:19.070Z,97376.27
2019-05-17T00:52:27.164Z,97371.13
2019-05-17T00:56:32.119Z,97360.97
2019-05-17T01:00:38.848Z,97361.70
2019-05-17T01:04:44.535Z,97359.56
2019-05-17T01:09:01.030Z,97362.00
2019-05-17T01:12:57.706Z,97359.28
2019-05-17T01:17:03.495Z,97350.16
2019-05-17T01:21:09.331Z,97342.44
2019-05-17T01:25:17.216Z,97342.39
2019-05-17T01:29:22.635Z,97343.15
2019-05-17T01:33:28.492Z,97343.45
2019-05-17T01:37:36.711Z,97336.87
2019-05-17T01:41:41.556Z,97335.94
2019-05-17T01:45:48.059Z,97337.88
2019-05-17T01:49:53.921Z,97340.28
2019-05-17T01:53:59.596Z,97338.74
2019-05-17T01:58:07.412Z,97340.28
2019-05-17T02:02:16.312Z,97339.21
2019-05-17T02:06:21.727Z,97329.24
2019-05-17T02:10:27.413Z,97332.44
2019-05-17T02:14:33.082Z,97330.42
2019-05-17T02:18:38.788Z,97328.95
2019-05-17T02:22:47.082Z,97329.09
2019-05-17T02:26:51.925Z,97324.87
2019-05-17T02:30:57.945Z,97319.13
2019-05-17T02:35:04.446Z,97319.45
2019-05-17T02:39:13.132Z,97321.44
2019-05-17T02:43:17.612Z,97320.34
2019-05-17T02:47:23.292Z,97317.37
2019-05-17T02:51:32.117Z,97313.61
2019-05-17T02:55:36.423Z,97309.73
2019-05-17T02:59:43.316Z,97313.58
2019-05-17T03:03:49.145Z,97316.41
2019-05-17T03:07:54.815Z,97315.64
2019-05-17T03:12:03.290Z,97314.47
2019-05-17T03:16:07.903Z,97311.64
2019-05-17T03:20:15.314Z,97303.58
2019-05-17T03:24:22.631Z,97301.92
2019-05-17T03:28:28.538Z,97300.50
2019-05-17T03:32:36.477Z,97296.09
2019-05-17T03:36:46.966Z,97303.22
2019-05-17T03:41:18.463Z,97303.42
2019-05-17T03:45:02.631Z,97312.16
2019-05-17T03:49:06.880Z,97311.48
2019-05-17T03:53:13.284Z,97307.41
2019-05-17T03:57:19.119Z,97306.66
2019-05-17T04:01:24.894Z,97304.07
2019-05-17T04:05:33.300Z,97306.00
2019-05-17T04:09:38.050Z,97301.72
2019-05-17T04:13:43.724Z,97308.72
2019-05-17T04:17:52.690Z,97313.05
2019-05-17T04:21:56.790Z,97316.23
2019-05-17T04:26:04.339Z,97317.84
2019-05-17T04:30:12.587Z,97321.93
2019-05-17T04:34:18.050Z,97325.32
2019-05-17T04:38:24.962Z,97321.72
2019-05-17T04:42:33.162Z,97321.30
2019-05-17T04:46:43.063Z,97316.83
2019-05-17T04:50:48.788Z,97313.36
2019-05-17T04:54:54.487Z,97312.75
2019-05-17T04:59:03.246Z,97317.23
2019-05-17T05:03:07.864Z,97314.20
2019-05-17T05:07:13.933Z,97312.37
2019-05-17T05:11:19.636Z,97314.06
2019-05-17T05:15:44.472Z,97313.50
2019-05-17T05:19:52.971Z,97308.50
2019-05-17T05:23:57.864Z,97310.93
2019-05-17T05:28:04.606Z,97303.66
2019-05-17T05:32:11.805Z,97299.56
2019-05-17T05:36:17.587Z,97307.75
2019-05-17T05:40:23.257Z,97294.73
2019-05-17T05:44:28.959Z,97299.42
2019-05-17T05:48:34.637Z,97298.05
2019-05-17T05:52:42.409Z,97294.43
2019-05-17T05:56:47.828Z,97294.41
2019-05-17T06:00:53.641Z,97288.13
2019-05-17T06:05:01.751Z,97286.42
2019-05-17T06:09:11.836Z,97287.37
2019-05-17T06:13:16.961Z,97278.32
2019-05-17T06:17:22.643Z,97279.52
2019-05-17T06:21:29.020Z,97280.34
2019-05-17T06:25:34.704Z,97276.81
2019-05-17T06:29:41.506Z,97276.87
2019-05-17T06:33:47.410Z,97274.95
2019-05-17T06:37:53.612Z,97277.94
2019-05-17T06:41:59.368Z,97276.06
2019-05-17T06:46:05.179Z,97270.02
2019-05-17T06:50:13.929Z,97272.34
2019-05-17T06:54:18.818Z,97258.98
2019-05-17T06:58:24.519Z,97262.77
2019-05-17T07:02:30.816Z,97256.45
2019-05-17T07:06:36.933Z,97259.56
2019-05-17T07:10:42.703Z,97249.33
2019-05-17T07:14:50.561Z,97253.05
2019-05-17T07:18:55.795Z,97250.58
2019-05-17T07:23:01.472Z,97247.66
2019-05-17T07:27:07.225Z,97241.00
2019-05-17T07:31:12.922Z,97227.67
2019-05-17T07:35:19.800Z,97231.80
2019-05-17T07:39:25.503Z,97222.41
2019-05-17T07:43:31.278Z,97218.28
2019-05-17T07:47:36.959Z,97212.33
2019-05-17T07:51:42.644Z,97214.50
2019-05-17T07:55:50.589Z,97204.48
2019-05-17T07:59:55.818Z,97202.94
2019-05-17T08:04:01.921Z,97198.36
2019-05-17T08:08:09.655Z,97197.99
2019-05-17T08:12:15.181Z,97199.52
2019-05-17T08:16:20.903Z,97191.87
2019-05-17T08:20:29.836Z,97189.31
2019-05-17T08:24:35.109Z,97185.64
2019-05-17T08:28:40.825Z,97182.91
2019-05-17T08:32:46.607Z,97180.28
2019-05-17T08:36:52.299Z,97166.53
2019-05-17T08:41:00.526Z,97172.27
2019-05-17T08:45:09.528Z,97161.64
2019-05-17T08:49:14.855Z,97151.02
2019-05-17T08:53:20.515Z,97153.23
2019-05-17T08:57:26.513Z,97147.73
2019-05-17T09:01:32.204Z,97147.20
2019-05-17T09:05:38.043Z,97135.80
2019-05-17T09:09:44.271Z,97129.23
2019-05-17T09:13:57.907Z,97130.36
2019-05-17T09:17:57.327Z,97131.39
2019-05-17T09:22:04.069Z,97128.00
2019-05-17T09:26:10.133Z,97127.07
2019-05-17T09:30:16.435Z,97123.28
2019-05-17T09:34:22.105Z,97123.33
2019-05-17T09:38:29.556Z,97119.84
2019-05-17T09:42:35.411Z,97119.45
2019-05-17T09:46:41.088Z,97111.11
2019-05-17T09:50:46.783Z,97095.22
2019-05-17T09:54:52.443Z,97099.84
2019-05-17T09:59:00.233Z,97098.66
2019-05-17T10:03:05.593Z,97089.00
2019-05-17T10:07:11.324Z,97095.08
2019-05-17T10:11:20.092Z,97088.43
2019-05-17T10:15:25.556Z,97083.69
2019-05-17T10:19:31.756Z,97077.67
2019-05-17T10:23:37.420Z,97075.25
2019-05-17T10:27:43.108Z,97072.40
2019-05-17T10:31:50.466Z,97069.64
2019-05-17T10:35:56.279Z,97069.45
2019-05-17T10:40:11.522Z,97067.30
2019-05-17T10:44:19.825Z,97064.99
2019-05-17T10:48:24.835Z,97057.35
2019-05-17T10:52:30.510Z,97060.95
2019-05-17T10:56:36.567Z,97052.77
2019-05-17T11:00:42.397Z,97052.59
2019-05-17T11:04:50.386Z,97041.47
2019-05-17T11:08:55.517Z,97039.16
2019-05-17T11:13:01.308Z,97035.57
2019-05-17T11:17:07.015Z,97028.06
2019-05-17T11:21:13.016Z,97028.11
2019-05-17T11:25:19.156Z,97020.63
2019-05-17T11:29:24.848Z,97034.65
2019-05-17T11:33:30.515Z,97025.25
2019-05-17T11:37:36.214Z,97020.80
2019-05-17T11:41:41.895Z,97017.02
2019-05-17T11:45:47.745Z,97013.41
2019-05-17T11:49:53.489Z,97012.41
2019-05-17T11:53:59.148Z,97007.80
2019-05-17T11:58:05.495Z,97011.74
2019-05-17T12:02:11.192Z,97002.30
2019-05-17T12:06:16.941Z,96996.03
2019-05-17T12:10:22.821Z,96993.26
2019-05-17T12:14:29.628Z,96994.92
2019-05-17T12:18:35.368Z,96987.68
2019-05-17T12:22:41.839Z,96978.81
2019-05-17T12:26:47.683Z,96978.02
2019-05-17T12:30:53.410Z,96974.02
2019-05-17T12:34:59.082Z,96977.59
2019-05-17T12:39:06.777Z,96973.99
2019-05-17T12:43:12.517Z,96970.19
2019-05-17T12:47:18.246Z,96969.08
2019-05-17T12:51:23.937Z,96966.80
2019-05-17T12:55:29.672Z,96966.77
2019-05-17T12:59:36.331Z,96960.98
2019-05-17T13:03:42.006Z,96955.94
2019-05-17T13:07:47.977Z,96952.93
2019-05-17T13:11:53.647Z,96944.57
2019-05-17T13:15:59.419Z,96940.19
2019-05-17T13:20:10.268Z,96938.98
2019-05-17T13:24:16.027Z,96920.13
2019-05-17T13:28:21.702Z,96942.46
2019-05-17T13:32:27.453Z,96928.50
2019-05-17T13:36:33.204Z,96926.22
2019-05-17T13:40:40.062Z,96919.41
2019-05-17T13:44:46.065Z,96919.63
2019-05-17T13:48:51.754Z,96927.19
2019-05-17T13:52:57.469Z,96912.92
2019-05-17T13:57:03.196Z,96920.23
2019-05-17T14:01:08.928Z,96914.30
2019-05-17T14:05:15.690Z,96919.41
2019-05-17T14:09:21.368Z,96913.73
2019-05-17T14:13:27.060Z,96917.28
2019-05-17T14:17:32.742Z,96916.53
2019-05-17T14:21:38.443Z,96912.57
2019-05-17T14:25:44.102Z,96914.86
2019-05-17T14:29:49.806Z,96913.46
2019-05-17T14:33:55.507Z,96914.03
2019-05-17T14:38:01.182Z,96921.34
2019-05-17T14:46:04.617Z,96902.22
2019-05-17T14:50:10.904Z,96903.70
2019-05-17T14:54:16.591Z,96916.91
2019-05-17T14:58:22.287Z,96921.59
2019-05-17T15:02:28.062Z,96921.36
2019-05-17T15:06:34.074Z,96913.66
2019-05-17T15:10:39.813Z,96915.81
2019-05-17T15:14:45.611Z,96923.83
2019-05-17T15:18:51.328Z,96938.94
2019-05-17T15:22:57.200Z,96954.22
2019-05-17T15:27:05.783Z,96987.55
2019-05-17T15:31:10.264Z,96993.98
2019-05-17T15:35:15.990Z,97010.87
2019-05-17T15:39:21.748Z,97010.73
2019-05-17T15:43:27.418Z,97002.09
2019-05-17T15:47:33.122Z,97003.42
2019-05-17T15:51:38.799Z,97002.20
2019-05-17T15:55:44.464Z,96998.67
2019-05-17T15:59:50.168Z,96994.95
2019-05-17T16:03:55.913Z,96993.00
2019-05-17T16:08:01.575Z,96988.34
2019-05-17T16:12:07.328Z,96991.06
2019-05-17T16:16:13.004Z,96988.08
2019-05-17T16:20:19.051Z,96982.23
2019-05-17T16:24:24.781Z,96979.62
2019-05-17T16:28:30.516Z,96969.38
2019-05-17T16:32:36.161Z,96967.23
2019-05-17T16:36:41.819Z,96967.75
2019-05-17T16:40:47.519Z,96955.97
2019-05-17T16:44:53.273Z,96956.64
2019-05-17T16:48:58.941Z,96972.38
2019-05-17T16:53:06.546Z,96986.67
2019-05-17T16:57:12.435Z,96993.52
2019-05-17T17:01:18.267Z,96994.43
2019-05-17T17:05:24.138Z,96981.66
2019-05-17T17:09:29.882Z,96971.54
2019-05-17T17:13:35.644Z,96955.83
2019-05-17T17:17:41.318Z,96954.98
2019-05-17T17:21:47.029Z,96929.38
2019-05-17T17:25:52.686Z,96929.63
2019-05-17T17:29:58.353Z,96939.39
2019-05-17T17:34:04.235Z,96947.20
2019-05-17T17:38:10.547Z,96942.34
2019-05-17T17:42:16.219Z,96945.58
2019-05-17T17:46:22.370Z,96952.83
2019-05-17T17:50:28.071Z,96960.20
2019-05-17T17:54:33.845Z,96974.48
2019-05-17T17:58:39.514Z,96979.17
2019-05-17T18:02:45.316Z,96992.87
2019-05-17T18:06:51.014Z,96996.08
2019-05-17T18:10:56.715Z,97013.75
2019-05-17T18:15:05.930Z,97011.23
2019-05-17T18:19:10.386Z,97005.49
2019-05-17T18:23:20.932Z,97008.05
2019-05-17T18:27:23.787Z,97005.82
2019-05-17T18:31:29.584Z,97005.34
2019-05-17T18:35:36.338Z,97004.55
2019-05-17T18:39:42.031Z,97006.88
2019-05-17T18:43:47.729Z,97004.75
2019-05-17T18:47:53.559Z,97009.52
2019-05-17T18:51:59.418Z,97010.79
2019-05-17T18:56:05.108Z,97015.69
2019-05-17T19:00:11.555Z,97013.83
2019-05-17T19:04:17.246Z,97012.34
2019-05-17T19:08:22.953Z,97012.34
2019-05-17T19:12:28.638Z,97015.59
2019-05-17T19:16:34.346Z,97019.88
2019-05-17T19:20:40.195Z,97021.99
2019-05-17T19:24:45.894Z,97028.64
2019-05-17T19:28:51.573Z,97036.78
2019-05-17T19:32:58.250Z,97048.02
2019-05-17T19:37:04.010Z,97047.53
2019-05-17T19:41:10.692Z,97063.64
2019-05-17T19:45:16.831Z,97061.86
2019-05-17T19:49:22.569Z,97075.89
2019-05-17T19:53:28.254Z,97075.39
2019-05-17T19:57:33.986Z,97090.13
2019-05-17T20:01:39.726Z,97099.19
2019-05-17T20:05:45.424Z,97101.66
2019-05-17T20:09:51.087Z,97092.28
2019-05-17T20:13:56.770Z,97091.27
2019-05-17T20:18:03.620Z,97090.42
2019-05-17T20:22:10.076Z,97087.59
2019-05-17T20:26:15.797Z,97085.86
2019-05-17T20:30:21.805Z,97086.44
2019-05-17T20:34:27.473Z,97088.97
2019-05-17T20:38:33.303Z,97091.34
2019-05-17T20:42:38.973Z,97090.08
2019-05-17T20:46:44.651Z,97091.58
2019-05-17T20:50:50.370Z,97086.07
2019-05-17T20:54:56.033Z,97084.92
2019-05-17T20:59:01.717Z,97088.46
2019-05-17T21:03:07.395Z,97085.53
2019-05-17T21:07:13.090Z,97088.44
2019-05-17T21:11:18.819Z,97092.59
2019-05-17T21:15:24.536Z,97088.73
2019-05-17T21:19:30.198Z,97087.80
2019-05-17T21:23:35.895Z,97088.19
2019-05-17T21:27:41.923Z,97087.92
2019-05-17T21:31:47.580Z,97086.02
2019-05-17T21:35:53.402Z,97080.07
2019-05-17T21:40:00.060Z,97080.80
2019-05-17T21:44:05.944Z,97080.59
2019-05-17T21:48:11.638Z,97074.77
2019-05-17T21:52:17.309Z,97071.79
2019-05-17T21:56:23.034Z,97072.81
2019-05-17T22:00:54.305Z,97065.74
2019-05-17T22:05:00.056Z,97067.27
2019-05-17T22:09:08.054Z,97066.84
2019-05-17T22:13:13.732Z,97070.65
2019-05-17T22:17:19.409Z,97072.41
2019-05-17T22:21:25.118Z,97071.63
2019-05-17T22:25:30.822Z,97076.66
2019-05-17T22:29:36.513Z,97072.14
2019-05-17T22:33:42.228Z,97068.56
2019-05-17T22:37:47.982Z,97069.74
2019-05-17T22:41:53.658Z,97062.02
2019-05-17T22:45:59.383Z,97065.74
2019-05-17T22:50:06.382Z,97064.88
2019-05-17T22:54:12.049Z,97066.91
2019-05-17T22:58:17.740Z,97062.98
2019-05-17T23:02:23.442Z,97067.67
2019-05-17T23:06:29.109Z,97072.64
2019-05-17T23:10:35.235Z,97064.30
2019-05-17T23:14:40.976Z,97064.59
2019-05-17T23:19:05.824Z,97067.33
2019-05-17T23:23:11.531Z,97076.31
2019-05-17T23:27:17.208Z,97082.47
2019-05-17T23:31:23.086Z,97080.21
2019-05-17T23:35:28.764Z,97084.73
2019-05-17T23:39:34.518Z,97088.45
2019-05-17T23:43:40.219Z,97085.30
2019-05-17T23:47:45.900Z,97088.27
2019-05-17T23:51:51.614Z,97093.98
2019-05-17T23:55:57.284Z,97087.42
